createdAt,value
2023-12-21T00:01:45.362Z,101186.25
2023-12-21T00:05:05.014Z,101189.98
2023-12-21T00:08:34.634Z,101192.67
2023-12-21T00:12:03.960Z,101200.66
2023-12-21T00:15:33.285Z,101204.11
2023-12-21T00:19:02.698Z,101203.33
2023-12-21T00:22:34.058Z,101203.98
2023-12-21T00:26:03.512Z,101209.55
2023-12-21T00:29:23.176Z,101216.58
2023-12-21T00:32:52.426Z,101223.91
2023-12-21T00:36:15.016Z,101225.47
2023-12-21T00:39:45.629Z,101232.54
2023-12-21T00:43:08.113Z,101226.46
2023-12-21T00:46:37.499Z,101225.21
2023-12-21T00:49:56.039Z,101221.11
2023-12-21T00:53:24.589Z,101215.66
2023-12-21T00:56:53.501Z,101212.25
2023-12-21T01:00:22.832Z,101211.60
2023-12-21T01:03:52.295Z,101211.36
2023-12-21T01:07:11.844Z,101205.89
2023-12-21T01:10:40.519Z,101199.83
2023-12-21T01:14:11.178Z,101201.13
2023-12-21T01:17:39.956Z,101211.93
2023-12-21T01:21:09.735Z,101222.02
2023-12-21T01:24:38.962Z,101228.96
2023-12-21T01:27:58.090Z,101232.42
2023-12-21T01:31:20.159Z,101239.84
2023-12-21T01:34:50.570Z,101238.90
2023-12-21T01:38:19.851Z,101240.52
2023-12-21T01:41:49.049Z,101250.95
2023-12-21T01:45:18.537Z,101247.92
2023-12-21T01:48:48.217Z,101247.95
2023-12-21T01:52:17.676Z,101255.18
2023-12-21T01:55:47.058Z,101257.11
2023-12-21T01:59:12.808Z,101257.52
2023-12-21T02:02:42.793Z,101253.83
2023-12-21T02:06:12.350Z,101250.27
2023-12-21T02:09:34.380Z,101257.04
2023-12-21T02:12:57.304Z,101256.36
2023-12-21T02:16:26.671Z,101257.25
2023-12-21T02:19:56.320Z,101259.06
2023-12-21T02:23:26.211Z,101255.88
2023-12-21T02:26:56.614Z,101265.41
2023-12-21T02:30:25.960Z,101271.59
2023-12-21T02:33:55.840Z,101271.02
2023-12-21T02:37:25.515Z,101270.98
2023-12-21T02:40:38.304Z,101272.69
2023-12-21T02:44:07.875Z,101277.36
2023-12-21T02:47:37.288Z,101277.80
2023-12-21T02:51:07.112Z,101278.73
2023-12-21T02:54:36.443Z,101283.70
2023-12-21T02:58:05.200Z,101287.98
2023-12-21T03:01:33.887Z,101287.11
2023-12-21T03:05:04.446Z,101282.80
2023-12-21T03:08:34.110Z,101297.09
2023-12-21T03:12:03.371Z,101296.77
2023-12-21T03:15:33.604Z,101302.74
2023-12-21T03:19:03.029Z,101303.02
2023-12-21T03:22:35.824Z,101301.73
2023-12-21T03:25:55.026Z,101305.80
2023-12-21T03:29:24.447Z,101314.03
2023-12-21T03:32:34.202Z,101327.70
2023-12-21T03:35:56.392Z,101327.91
2023-12-21T03:39:25.895Z,101321.23
2023-12-21T03:42:55.569Z,101325.24
2023-12-21T03:46:24.978Z,101316.58
2023-12-21T03:49:54.338Z,101319.91
2023-12-21T03:53:23.710Z,101320.58
2023-12-21T03:56:53.478Z,101313.40
2023-12-21T04:00:22.670Z,101312.25
2023-12-21T04:03:52.086Z,101315.57
2023-12-21T04:07:21.170Z,101320.23
2023-12-21T04:10:51.707Z,101328.20
2023-12-21T04:14:14.735Z,101336.06
2023-12-21T04:17:17.565Z,101343.95
2023-12-21T04:20:27.545Z,101340.98
2023-12-21T04:23:56.991Z,101341.30
2023-12-21T04:27:16.580Z,101337.57
2023-12-21T04:30:46.278Z,101344.52
2023-12-21T04:34:17.278Z,101351.00
2023-12-21T04:37:47.055Z,101347.33
2023-12-21T04:41:16.436Z,101335.88
2023-12-21T04:44:18.023Z,101336.17
2023-12-21T04:47:47.435Z,101335.59
2023-12-21T04:51:16.950Z,101343.31
2023-12-21T04:54:46.566Z,101347.19
2023-12-21T04:58:15.891Z,101346.67
2023-12-21T05:01:35.569Z,101355.12
2023-12-21T05:05:04.858Z,101351.44
2023-12-21T05:08:34.068Z,101348.48
2023-12-21T05:12:03.521Z,101348.42
2023-12-21T05:15:23.383Z,101347.71
2023-12-21T05:18:51.797Z,101352.98
2023-12-21T05:22:14.737Z,101366.98
2023-12-21T05:25:34.914Z,101367.69
2023-12-21T05:28:54.467Z,101369.53
2023-12-21T05:32:19.698Z,101362.99
2023-12-21T05:35:50.173Z,101369.25
2023-12-21T05:39:19.583Z,101373.02
2023-12-21T05:42:49.505Z,101374.68
2023-12-21T05:46:09.462Z,101376.98
2023-12-21T05:49:39.221Z,101387.68
2023-12-21T05:52:59.731Z,101392.05
2023-12-21T05:56:28.441Z,101394.25
2023-12-21T05:59:58.742Z,101392.76
2023-12-21T06:03:28.349Z,101394.17
2023-12-21T06:06:57.711Z,101395.66
2023-12-21T06:10:27.324Z,101396.42
2023-12-21T06:13:57.064Z,101382.20
2023-12-21T06:17:26.665Z,101373.88
2023-12-21T06:20:56.118Z,101371.80
2023-12-21T06:24:25.539Z,101379.13
2023-12-21T06:27:25.864Z,101387.61
2023-12-21T06:30:27.985Z,101400.39
2023-12-21T06:33:40.687Z,101404.27
2023-12-21T06:37:11.365Z,101413.92
2023-12-21T06:40:39.368Z,101413.41
2023-12-21T06:44:07.978Z,101408.95
2023-12-21T06:47:37.387Z,101409.96
2023-12-21T06:51:06.852Z,101416.55
2023-12-21T06:54:36.518Z,101415.42
2023-12-21T06:57:58.394Z,101419.09
2023-12-21T07:01:27.793Z,101414.38
2023-12-21T07:04:56.677Z,101413.39
2023-12-21T07:08:19.029Z,101407.92
2023-12-21T07:11:49.616Z,101411.20
2023-12-21T07:15:19.073Z,101414.98
2023-12-21T07:18:30.799Z,101420.77
2023-12-21T07:22:00.227Z,101426.99
2023-12-21T07:25:29.492Z,101431.53
2023-12-21T07:28:59.219Z,101426.70
2023-12-21T07:32:29.275Z,101419.76
2023-12-21T07:35:52.301Z,101409.95
2023-12-21T07:39:05.395Z,101416.88
2023-12-21T07:42:35.272Z,101411.08
2023-12-21T07:45:44.967Z,101404.70
2023-12-21T07:49:04.589Z,101399.37
2023-12-21T07:52:34.241Z,101394.10
2023-12-21T07:56:05.365Z,101397.75
2023-12-21T07:59:36.131Z,101403.80
2023-12-21T08:03:05.694Z,101398.80
2023-12-21T08:06:39.709Z,101394.18
2023-12-21T08:10:09.129Z,101394.84
2023-12-21T08:13:38.495Z,101394.61
2023-12-21T08:17:17.368Z,101389.40
2023-12-21T08:20:47.187Z,101400.07
2023-12-21T08:24:16.598Z,101411.81
2023-12-21T08:27:46.031Z,101410.53
2023-12-21T08:31:15.638Z,101409.12
2023-12-21T08:34:45.009Z,101410.35
2023-12-21T08:38:14.352Z,101417.70
2023-12-21T08:41:44.019Z,101422.92
2023-12-21T08:45:13.475Z,101417.98
2023-12-21T08:48:42.649Z,101406.42
2023-12-21T08:51:51.882Z,101404.23
2023-12-21T08:55:15.330Z,101394.80
2023-12-21T08:58:44.939Z,101391.47
2023-12-21T09:02:14.574Z,101390.67
2023-12-21T09:05:46.074Z,101395.14
2023-12-21T09:09:15.463Z,101397.71
2023-12-21T09:12:45.129Z,101399.13
2023-12-21T09:16:13.452Z,101400.50
2023-12-21T09:19:28.497Z,101404.08
2023-12-21T09:22:58.600Z,101401.95
2023-12-21T09:26:28.829Z,101398.42
2023-12-21T09:29:58.434Z,101410.45
2023-12-21T09:33:11.352Z,101418.71
2023-12-21T09:36:40.706Z,101420.83
2023-12-21T09:40:10.568Z,101419.70
2023-12-21T09:43:40.473Z,101422.48
2023-12-21T09:47:10.062Z,101421.39
2023-12-21T09:50:39.338Z,101426.70
2023-12-21T09:54:07.644Z,101428.27
2023-12-21T09:57:36.025Z,101427.91
2023-12-21T10:00:59.311Z,101428.05
2023-12-21T10:04:22.091Z,101432.41
2023-12-21T10:07:51.838Z,101436.45
2023-12-21T10:11:22.446Z,101442.92
2023-12-21T10:14:45.063Z,101444.10
2023-12-21T10:18:14.805Z,101439.23
2023-12-21T10:21:44.651Z,101436.64
2023-12-21T10:25:14.168Z,101437.89
2023-12-21T10:28:44.189Z,101439.59
2023-12-21T10:32:13.412Z,101444.58
2023-12-21T10:35:43.255Z,101438.69
2023-12-21T10:39:12.799Z,101441.49
2023-12-21T10:42:45.679Z,101447.90
2023-12-21T10:46:15.162Z,101448.34
2023-12-21T10:49:44.858Z,101448.78
2023-12-21T10:53:07.286Z,101443.82
2023-12-21T10:56:36.610Z,101443.16
2023-12-21T11:00:06.093Z,101450.49
2023-12-21T11:03:19.220Z,101460.73
2023-12-21T11:06:38.413Z,101462.25
2023-12-21T11:10:07.598Z,101458.05
2023-12-21T11:13:37.888Z,101458.20
2023-12-21T11:17:19.573Z,101456.84
2023-12-21T11:24:14.724Z,101454.63
2023-12-21T11:27:44.070Z,101449.82
2023-12-21T11:31:13.605Z,101449.46
2023-12-21T11:34:36.040Z,101448.58
2023-12-21T11:38:21.153Z,101454.08
2023-12-21T11:41:43.656Z,101460.55
2023-12-21T11:45:18.854Z,101464.77
2023-12-21T11:48:38.334Z,101469.79
2023-12-21T11:51:51.592Z,101469.58
2023-12-21T11:55:24.038Z,101474.61
2023-12-21T11:59:02.950Z,101481.34
2023-12-21T12:02:32.296Z,101484.69
2023-12-21T12:06:05.543Z,101488.16
2023-12-21T12:09:35.234Z,101490.86
2023-12-21T12:12:57.435Z,101487.37
2023-12-21T12:16:26.929Z,101495.05
2023-12-21T12:19:50.011Z,101494.40
2023-12-21T12:23:19.591Z,101495.42
2023-12-21T12:26:49.247Z,101492.85
2023-12-21T12:30:18.706Z,101493.02
2023-12-21T12:33:41.015Z,101498.38
2023-12-21T12:37:11.074Z,101504.11
2023-12-21T12:40:40.685Z,101512.65
2023-12-21T12:44:10.077Z,101510.72
2023-12-21T12:47:39.254Z,101504.84
2023-12-21T12:51:10.063Z,101498.02
2023-12-21T12:54:39.460Z,101490.52
2023-12-21T12:58:12.048Z,101488.77
2023-12-21T13:01:41.291Z,101482.61
2023-12-21T13:05:10.601Z,101486.61
2023-12-21T13:08:40.808Z,101477.09
2023-12-21T13:12:10.216Z,101490.89
2023-12-21T13:15:39.622Z,101500.56
2023-12-21T13:19:09.010Z,101507.31
2023-12-21T13:22:38.661Z,101508.33
2023-12-21T13:25:58.972Z,101512.86
2023-12-21T13:29:10.620Z,101509.61
2023-12-21T13:32:39.671Z,101501.06
2023-12-21T13:35:52.295Z,101503.98
2023-12-21T13:39:20.839Z,101505.86
2023-12-21T13:42:50.198Z,101508.02
2023-12-21T13:46:19.507Z,101508.66
2023-12-21T13:49:49.155Z,101510.30
2023-12-21T13:53:09.175Z,101516.96
2023-12-21T13:56:31.747Z,101520.37
2023-12-21T14:00:02.331Z,101520.64
2023-12-21T14:03:32.196Z,101519.73
2023-12-21T14:07:01.638Z,101516.40
2023-12-21T14:10:30.989Z,101507.52
2023-12-21T14:14:00.421Z,101508.94
2023-12-21T14:17:30.184Z,101511.10
2023-12-21T14:21:01.045Z,101506.00
2023-12-21T14:24:30.376Z,101501.58
2023-12-21T14:27:44.103Z,101502.42
2023-12-21T14:31:13.695Z,101502.89
2023-12-21T14:34:43.616Z,101504.55
2023-12-21T14:38:12.017Z,101509.95
2023-12-21T14:41:41.414Z,101509.63
2023-12-21T14:45:01.028Z,101512.61
2023-12-21T14:48:30.945Z,101510.36
2023-12-21T14:52:00.829Z,101512.77
2023-12-21T14:55:30.619Z,101515.02
2023-12-21T14:59:00.150Z,101525.07
2023-12-21T15:02:31.238Z,101529.75
2023-12-21T15:06:00.762Z,101536.00
2023-12-21T15:09:30.915Z,101538.50
2023-12-21T15:12:53.144Z,101536.66
2023-12-21T15:16:22.765Z,101532.77
2023-12-21T15:19:52.427Z,101530.51
2023-12-21T15:23:21.693Z,101532.08
2023-12-21T15:26:51.110Z,101536.69
2023-12-21T15:30:20.948Z,101537.59
2023-12-21T15:33:50.190Z,101538.52
2023-12-21T15:37:19.633Z,101548.38
2023-12-21T15:40:49.266Z,101556.30
2023-12-21T15:44:08.940Z,101556.13
2023-12-21T15:47:38.556Z,101562.85
2023-12-21T15:51:08.123Z,101563.45
2023-12-21T15:54:37.746Z,101558.55
2023-12-21T15:58:07.262Z,101555.13
2023-12-21T16:01:37.022Z,101554.15
2023-12-21T16:05:06.433Z,101555.95
2023-12-21T16:08:34.528Z,101559.81
2023-12-21T16:12:04.104Z,101561.19
2023-12-21T16:15:33.680Z,101566.17
2023-12-21T16:19:03.008Z,101569.73
2023-12-21T16:22:32.374Z,101568.30
2023-12-21T16:26:00.909Z,101569.11
2023-12-21T16:29:30.191Z,101569.45
2023-12-21T16:32:52.878Z,101573.45
2023-12-21T16:36:22.665Z,101579.14
2023-12-21T16:39:51.990Z,101581.13
2023-12-21T16:43:21.400Z,101588.14
2023-12-21T16:46:50.780Z,101589.79
2023-12-21T16:50:20.221Z,101588.09
2023-12-21T16:53:40.421Z,101593.80
2023-12-21T16:57:01.209Z,101593.57
2023-12-21T17:00:29.424Z,101598.27
2023-12-21T17:03:59.695Z,101598.36
2023-12-21T17:07:29.614Z,101599.17
2023-12-21T17:10:58.923Z,101600.45
2023-12-21T17:14:11.300Z,101597.27
2023-12-21T17:17:41.051Z,101595.17
2023-12-21T17:21:09.651Z,101593.27
2023-12-21T17:24:38.391Z,101594.84
2023-12-21T17:28:00.448Z,101591.15
2023-12-21T17:31:29.915Z,101591.58
2023-12-21T17:34:59.539Z,101592.20
2023-12-21T17:38:28.754Z,101590.10
2023-12-21T17:41:58.386Z,101592.81
2023-12-21T17:45:21.924Z,101598.81
2023-12-21T17:48:51.779Z,101602.61
2023-12-21T17:52:21.134Z,101606.29
2023-12-21T17:55:51.887Z,101606.35
2023-12-21T17:59:22.880Z,101607.41
2023-12-21T18:02:52.139Z,101610.92
2023-12-21T18:06:21.732Z,101607.10
2023-12-21T18:09:51.244Z,101605.73
2023-12-21T18:13:20.926Z,101601.52
2023-12-21T18:16:50.641Z,101603.31
2023-12-21T18:20:23.322Z,101603.15
2023-12-21T18:23:52.577Z,101601.94
2023-12-21T18:27:22.346Z,101603.07
2023-12-21T18:30:51.808Z,101602.83
2023-12-21T18:34:21.467Z,101602.72
2023-12-21T18:37:51.093Z,101605.09
2023-12-21T18:41:21.122Z,101605.95
2023-12-21T18:44:43.252Z,101598.74
2023-12-21T18:48:12.625Z,101596.73
2023-12-21T18:51:42.238Z,101594.02
2023-12-21T18:55:02.007Z,101590.91
2023-12-21T18:58:31.428Z,101588.05
2023-12-21T19:02:01.213Z,101583.79
2023-12-21T19:05:13.044Z,101578.50
2023-12-21T19:08:42.136Z,101570.23
2023-12-21T19:12:13.456Z,101571.38
2023-12-21T19:15:42.473Z,101565.08
2023-12-21T19:19:11.451Z,101563.45
2023-12-21T19:22:20.451Z,101559.63
2023-12-21T19:25:49.358Z,101558.39
2023-12-21T19:29:12.201Z,101553.71
2023-12-21T19:32:34.121Z,101551.45
2023-12-21T19:36:03.035Z,101548.27
2023-12-21T19:39:32.827Z,101543.11
2023-12-21T19:42:53.774Z,101537.87
2023-12-21T19:46:22.594Z,101535.09
2023-12-21T19:49:51.458Z,101528.06
2023-12-21T19:53:12.766Z,101530.13
2023-12-21T19:56:43.001Z,101523.05
2023-12-21T20:00:14.265Z,101517.27
2023-12-21T20:03:43.648Z,101510.11
2023-12-21T20:07:11.519Z,101507.46
2023-12-21T20:10:40.438Z,101501.61
2023-12-21T20:14:01.180Z,101497.59
2023-12-21T20:17:30.277Z,101496.02
2023-12-21T20:20:59.178Z,101487.68
2023-12-21T20:24:28.588Z,101481.49
2023-12-21T20:27:58.036Z,101482.85
2023-12-21T20:31:21.031Z,101475.50
2023-12-21T20:34:51.973Z,101471.89
2023-12-21T20:38:21.314Z,101469.75
2023-12-21T20:41:43.759Z,101465.45
2023-12-21T20:45:01.943Z,101462.25
2023-12-21T20:48:31.931Z,101459.68
2023-12-21T20:52:00.801Z,101454.91
2023-12-21T20:55:30.380Z,101445.94
2023-12-21T20:58:59.594Z,101435.44
2023-12-21T21:02:29.237Z,101430.48
2023-12-21T21:05:58.902Z,101430.33
2023-12-21T21:09:27.425Z,101427.31
2023-12-21T21:12:56.810Z,101421.33
2023-12-21T21:16:26.270Z,101416.30
2023-12-21T21:19:37.369Z,101411.52
2023-12-21T21:23:07.046Z,101402.98
2023-12-21T21:26:28.984Z,101402.01
2023-12-21T21:30:00.053Z,101396.89
2023-12-21T21:33:12.983Z,101390.12
2023-12-21T21:36:33.030Z,101381.77
2023-12-21T21:40:02.549Z,101371.31
2023-12-21T21:43:29.909Z,101368.17
2023-12-21T21:46:59.273Z,101363.59
2023-12-21T21:50:28.749Z,101359.36
2023-12-21T21:53:58.348Z,101359.35
2023-12-21T21:57:17.864Z,101353.81
2023-12-21T22:00:48.336Z,101353.12
2023-12-21T22:04:11.030Z,101350.35
2023-12-21T22:07:31.447Z,101355.65
2023-12-21T22:10:55.033Z,101355.59
2023-12-21T22:14:24.550Z,101354.61
2023-12-21T22:17:37.692Z,101349.45
2023-12-21T22:21:07.194Z,101349.46
2023-12-21T22:24:36.321Z,101353.87
2023-12-21T22:27:58.665Z,101346.35
2023-12-21T22:31:28.298Z,101343.95
2023-12-21T22:34:47.708Z,101338.17
2023-12-21T22:38:17.160Z,101338.25
2023-12-21T22:41:45.020Z,101336.60
2023-12-21T22:44:58.766Z,101334.92
2023-12-21T22:48:28.320Z,101332.31
2023-12-21T22:51:58.100Z,101335.05
2023-12-21T22:55:17.874Z,101341.10
2023-12-21T22:58:28.906Z,101340.15
2023-12-21T23:01:51.988Z,101337.27
2023-12-21T23:05:21.922Z,101337.59
2023-12-21T23:08:50.996Z,101336.54
2023-12-21T23:12:20.484Z,101337.64
2023-12-21T23:15:32.874Z,101334.92
2023-12-21T23:19:02.555Z,101338.23
2023-12-21T23:22:25.425Z,101344.52
2023-12-21T23:25:45.978Z,101343.45
2023-12-21T23:28:58.552Z,101340.63
2023-12-21T23:32:30.965Z,101340.27
2023-12-21T23:35:50.215Z,101344.79
2023-12-21T23:39:13.179Z,101338.60
2023-12-21T23:42:34.786Z,101339.55
2023-12-21T23:45:47.885Z,101334.13
2023-12-21T23:49:17.249Z,101333.13
2023-12-21T23:52:47.718Z,101335.98
2023-12-21T23:56:06.104Z,101337.21
2023-12-21T23:59:37.005Z,101336.98
